createdAt,value
2023-01-25T00:00:34.348Z,1.65
2023-01-25T00:03:04.321Z,1.65
2023-01-25T00:05:34.157Z,1.71
2023-01-25T00:08:03.924Z,1.68
2023-01-25T00:10:34.028Z,1.65
2023-01-25T00:13:03.802Z,1.68
2023-01-25T00:15:33.610Z,1.82
2023-01-25T00:18:03.682Z,1.74
2023-01-25T00:20:33.780Z,1.73
2023-01-25T00:23:03.551Z,1.69
2023-01-25T00:25:33.333Z,1.67
2023-01-25T00:28:03.097Z,1.73
2023-01-25T00:30:32.967Z,1.69
2023-01-25T00:33:11.613Z,1.60
2023-01-25T00:35:41.426Z,1.60
2023-01-25T00:38:16.529Z,1.74
2023-01-25T00:40:49.119Z,1.67
2023-01-25T00:43:18.931Z,1.94
2023-01-25T00:45:48.846Z,1.68
2023-01-25T00:48:18.687Z,1.70
2023-01-25T00:50:48.577Z,1.61
2023-01-25T00:53:18.210Z,1.70
2023-01-25T00:55:54.583Z,1.69
2023-01-25T00:58:24.417Z,1.65
2023-01-25T01:00:56.177Z,1.69
2023-01-25T01:03:26.226Z,1.66
2023-01-25T01:06:08.788Z,1.68
2023-01-25T01:08:41.446Z,1.57
2023-01-25T01:11:12.743Z,1.85
2023-01-25T01:13:42.569Z,1.82
2023-01-25T01:16:14.682Z,1.65
2023-01-25T01:18:46.356Z,1.63
2023-01-25T01:21:16.329Z,1.65
2023-01-25T01:23:46.241Z,1.67
2023-01-25T01:26:19.165Z,2.03
2023-01-25T01:28:49.552Z,1.76
2023-01-25T01:31:22.845Z,1.61
2023-01-25T01:33:58.524Z,1.60
2023-01-25T01:36:30.754Z,1.58
2023-01-25T01:39:01.323Z,1.56
2023-01-25T01:41:31.291Z,1.85
2023-01-25T01:44:01.360Z,1.67
2023-01-25T01:46:42.508Z,1.66
2023-01-25T01:49:22.262Z,1.66
2023-01-25T01:52:04.254Z,1.68
2023-01-25T01:54:44.733Z,1.77
2023-01-25T01:57:29.419Z,1.74
2023-01-25T02:00:02.032Z,1.70
2023-01-25T02:02:33.703Z,1.70
2023-01-25T02:05:06.881Z,1.62
2023-01-25T02:07:39.590Z,1.77
2023-01-25T02:10:12.564Z,1.75
2023-01-25T02:12:45.513Z,1.60
2023-01-25T02:15:15.550Z,1.66
2023-01-25T02:17:45.464Z,1.89
2023-01-25T02:20:18.313Z,1.88
2023-01-25T02:23:03.115Z,1.92
2023-01-25T02:25:33.358Z,1.70
2023-01-25T02:28:16.427Z,1.68
2023-01-25T02:30:47.029Z,1.63
2023-01-25T02:33:18.504Z,1.68
2023-01-25T02:35:54.368Z,1.69
2023-01-25T02:38:24.067Z,1.71
2023-01-25T02:41:02.007Z,1.73
2023-01-25T02:43:35.047Z,1.86
2023-01-25T02:46:15.254Z,1.86
2023-01-25T02:48:46.654Z,1.74
2023-01-25T02:51:16.491Z,1.61
2023-01-25T02:53:46.240Z,1.57
2023-01-25T02:56:18.095Z,1.62
2023-01-25T02:58:49.855Z,1.65
2023-01-25T03:01:20.918Z,1.69
2023-01-25T03:03:50.965Z,1.70
2023-01-25T03:06:20.791Z,1.66
2023-01-25T03:08:50.695Z,1.60
2023-01-25T03:11:21.970Z,1.60
2023-01-25T03:13:53.070Z,1.59
2023-01-25T03:16:22.647Z,1.63
2023-01-25T03:18:54.834Z,1.57
2023-01-25T03:21:25.301Z,1.70
2023-01-25T03:24:01.300Z,1.65
2023-01-25T03:26:34.495Z,1.73
2023-01-25T03:29:06.366Z,1.62
2023-01-25T03:31:37.792Z,1.59
2023-01-25T03:34:07.389Z,1.67
2023-01-25T03:36:38.873Z,1.64
2023-01-25T03:39:08.629Z,1.54
2023-01-25T03:41:40.120Z,1.49
2023-01-25T03:44:13.340Z,1.49
2023-01-25T03:46:43.896Z,1.50
2023-01-25T03:49:14.131Z,1.56
2023-01-25T03:51:44.617Z,1.49
2023-01-25T03:54:14.379Z,1.55
2023-01-25T03:56:44.123Z,1.58
2023-01-25T03:59:15.394Z,1.59
2023-01-25T04:01:45.795Z,1.28
2023-01-25T04:04:15.392Z,1.28
2023-01-25T04:06:45.872Z,1.58
2023-01-25T04:09:15.611Z,1.58
2023-01-25T04:11:53.025Z,1.50
2023-01-25T04:14:34.942Z,1.44
2023-01-25T04:16:58.778Z,1.28
2023-01-25T04:19:33.041Z,1.33
2023-01-25T04:22:03.711Z,1.40
2023-01-25T04:24:38.028Z,1.44
2023-01-25T04:27:08.955Z,1.44
2023-01-25T04:29:41.930Z,1.45
2023-01-25T04:32:13.766Z,1.28
2023-01-25T04:34:44.232Z,1.40
2023-01-25T04:37:15.809Z,1.46
2023-01-25T04:39:47.259Z,1.44
2023-01-25T04:42:16.738Z,1.48
2023-01-25T04:44:47.660Z,1.56
2023-01-25T04:47:17.228Z,1.56
2023-01-25T04:49:47.653Z,1.52
2023-01-25T04:52:19.171Z,1.48
2023-01-25T04:54:49.179Z,1.61
2023-01-25T04:57:19.214Z,1.21
2023-01-25T04:59:50.677Z,1.31
2023-01-25T05:02:20.824Z,1.57
2023-01-25T05:04:50.784Z,1.69
2023-01-25T05:07:20.897Z,1.44
2023-01-25T05:09:50.711Z,1.47
2023-01-25T05:12:21.130Z,1.32
2023-01-25T05:14:52.674Z,1.38
2023-01-25T05:17:23.471Z,1.31
2023-01-25T05:19:53.296Z,1.31
2023-01-25T05:22:24.683Z,1.79
2023-01-25T05:24:55.555Z,1.60
2023-01-25T05:27:26.975Z,1.58
2023-01-25T05:29:58.819Z,1.48
2023-01-25T05:32:30.309Z,1.60
2023-01-25T05:35:01.047Z,1.45
2023-01-25T05:37:30.960Z,1.55
2023-01-25T05:40:01.471Z,1.40
2023-01-25T05:42:31.566Z,1.45
2023-01-25T05:45:01.825Z,1.49
2023-01-25T05:47:32.348Z,1.49
2023-01-25T05:50:02.147Z,1.53
2023-01-25T05:52:39.646Z,1.58
2023-01-25T05:55:09.761Z,1.61
2023-01-25T05:57:39.632Z,1.65
2023-01-25T06:00:10.143Z,1.67
2023-01-25T06:02:42.252Z,1.65
2023-01-25T06:05:13.687Z,1.60
2023-01-25T06:07:43.938Z,1.57
2023-01-25T06:10:13.780Z,1.55
2023-01-25T06:12:44.050Z,1.80
2023-01-25T06:15:13.545Z,2.04
2023-01-25T06:17:43.405Z,1.99
2023-01-25T06:20:20.260Z,1.86
2023-01-25T06:23:00.345Z,1.68
2023-01-25T06:25:30.107Z,1.84
2023-01-25T06:28:00.018Z,1.76
2023-01-25T06:30:29.784Z,1.57
2023-01-25T06:33:00.289Z,1.50
2023-01-25T06:35:32.261Z,1.62
2023-01-25T06:38:02.447Z,1.29
2023-01-25T06:40:32.206Z,1.28
2023-01-25T06:43:12.708Z,1.30
2023-01-25T06:45:42.673Z,1.38
2023-01-25T06:48:13.755Z,1.17
2023-01-25T06:50:43.566Z,1.36
2023-01-25T06:53:13.204Z,1.22
2023-01-25T06:55:42.958Z,1.56
2023-01-25T06:58:12.473Z,1.44
2023-01-25T07:00:42.230Z,1.29
2023-01-25T07:03:11.799Z,1.27
2023-01-25T07:05:41.562Z,1.24
2023-01-25T07:08:11.041Z,1.31
2023-01-25T07:10:40.791Z,1.29
2023-01-25T07:13:10.339Z,1.33
2023-01-25T07:15:40.095Z,1.41
2023-01-25T07:18:16.253Z,1.49
2023-01-25T07:20:42.204Z,1.37
2023-01-25T07:23:11.997Z,1.29
2023-01-25T07:25:49.407Z,1.31
2023-01-25T07:28:19.188Z,1.32
2023-01-25T07:30:49.514Z,1.31
2023-01-25T07:33:19.343Z,1.65
2023-01-25T07:35:50.913Z,1.57
2023-01-25T07:38:20.608Z,1.57
2023-01-25T07:40:54.249Z,1.44
2023-01-25T07:43:24.015Z,1.49
2023-01-25T07:45:54.342Z,1.66
2023-01-25T07:48:23.983Z,1.44
2023-01-25T07:50:55.397Z,1.33
2023-01-25T07:53:24.899Z,1.40
2023-01-25T07:55:54.721Z,1.66
2023-01-25T07:58:24.504Z,1.71
2023-01-25T08:00:54.440Z,1.69
2023-01-25T08:03:24.235Z,1.65
2023-01-25T08:05:55.107Z,1.80
2023-01-25T08:08:23.911Z,1.96
2023-01-25T08:10:54.384Z,1.88
2023-01-25T08:13:23.926Z,1.87
2023-01-25T08:15:57.045Z,1.67
2023-01-25T08:18:26.823Z,1.39
2023-01-25T08:21:03.814Z,1.39
2023-01-25T08:23:34.135Z,1.45
2023-01-25T08:26:05.850Z,1.28
2023-01-25T08:28:39.080Z,1.36
2023-01-25T08:31:18.421Z,1.54
2023-01-25T08:33:49.197Z,1.47
2023-01-25T08:36:19.697Z,1.55
2023-01-25T08:38:49.750Z,1.63
2023-01-25T08:41:20.522Z,1.69
2023-01-25T08:43:51.994Z,1.53
2023-01-25T08:46:23.149Z,1.46
2023-01-25T08:49:13.096Z,1.53
2023-01-25T08:51:46.272Z,1.50
2023-01-25T08:54:17.016Z,1.73
2023-01-25T08:56:49.919Z,1.66
2023-01-25T08:59:19.777Z,1.73
2023-01-25T09:01:49.892Z,1.63
2023-01-25T09:04:19.430Z,1.69
2023-01-25T09:06:49.246Z,1.69
2023-01-25T09:09:18.732Z,1.74
2023-01-25T09:11:48.481Z,1.61
2023-01-25T09:14:18.037Z,1.74
2023-01-25T09:16:47.773Z,1.49
2023-01-25T09:19:17.269Z,1.55
2023-01-25T09:21:48.276Z,1.47
2023-01-25T09:24:18.220Z,1.43
2023-01-25T09:26:56.087Z,1.59
2023-01-25T09:29:19.796Z,1.49
2023-01-25T09:31:49.665Z,1.59
2023-01-25T09:34:24.016Z,1.68
2023-01-25T09:36:54.040Z,1.76
2023-01-25T09:39:23.738Z,1.87
2023-01-25T09:42:15.567Z,1.85
2023-01-25T09:45:10.659Z,1.85
2023-01-25T09:47:43.760Z,1.82
2023-01-25T09:50:39.047Z,1.67
2023-01-25T09:53:25.468Z,1.67
2023-01-25T09:55:58.873Z,1.97
2023-01-25T09:58:37.578Z,1.75
2023-01-25T10:01:21.781Z,1.57
2023-01-25T10:03:56.442Z,1.66
2023-01-25T10:06:46.118Z,1.78
2023-01-25T10:09:18.555Z,1.65
2023-01-25T10:11:48.531Z,1.71
2023-01-25T10:14:21.376Z,1.92
2023-01-25T10:16:54.249Z,1.84
2023-01-25T10:19:48.040Z,2.27
2023-01-25T10:22:23.547Z,2.12
2023-01-25T10:25:23.787Z,2.03
2023-01-25T10:28:02.495Z,2.28
2023-01-25T10:30:41.072Z,2.36
2023-01-25T10:33:19.116Z,2.04
2023-01-25T10:35:50.541Z,2.05
2023-01-25T10:38:28.822Z,1.91
2023-01-25T10:41:11.028Z,1.91
2023-01-25T10:43:40.720Z,2.01
2023-01-25T10:46:22.384Z,2.06
2023-01-25T10:48:52.222Z,2.05
2023-01-25T10:51:35.656Z,2.09
2023-01-25T10:54:07.528Z,2.13
2023-01-25T10:56:40.327Z,2.33
2023-01-25T10:59:27.959Z,2.33
2023-01-25T11:02:01.435Z,2.15
2023-01-25T11:04:35.155Z,2.10
2023-01-25T11:07:06.607Z,2.19
2023-01-25T11:09:39.110Z,2.16
2023-01-25T11:12:20.369Z,2.17
2023-01-25T11:14:51.431Z,2.17
2023-01-25T11:17:27.496Z,1.89
2023-01-25T11:20:09.449Z,2.42
2023-01-25T11:22:40.900Z,2.28
2023-01-25T11:25:29.656Z,2.06
2023-01-25T11:28:19.888Z,2.23
2023-01-25T11:30:50.800Z,2.08
2023-01-25T11:33:23.247Z,2.38
2023-01-25T11:36:26.407Z,2.53
2023-01-25T11:39:13.636Z,2.58
2023-01-25T11:41:52.106Z,2.40
2023-01-25T11:44:51.802Z,2.14
2023-01-25T11:47:56.971Z,2.08
2023-01-25T11:50:35.673Z,2.00
2023-01-25T11:53:21.649Z,2.46
2023-01-25T11:55:57.034Z,2.40
2023-01-25T11:58:41.630Z,2.46
2023-01-25T12:01:30.586Z,2.21
2023-01-25T12:04:37.553Z,2.48
2023-01-25T12:07:37.217Z,2.56
2023-01-25T12:10:44.447Z,2.51
2023-01-25T12:13:35.176Z,2.26
2023-01-25T12:16:13.006Z,2.39
2023-01-25T12:18:52.064Z,2.53
2023-01-25T12:21:44.159Z,2.50
2023-01-25T12:24:43.826Z,2.51
2023-01-25T12:27:43.592Z,2.60
2023-01-25T12:30:16.127Z,2.40
2023-01-25T12:32:59.486Z,2.23
2023-01-25T12:35:28.965Z,2.14
2023-01-25T12:38:01.784Z,2.61
2023-01-25T12:40:40.167Z,2.51
2023-01-25T12:43:12.680Z,2.59
2023-01-25T12:45:45.196Z,2.54
2023-01-25T12:48:29.938Z,2.50
2023-01-25T12:51:00.645Z,2.39
2023-01-25T12:53:36.252Z,2.31
2023-01-25T12:56:12.752Z,2.31
2023-01-25T12:59:06.882Z,2.14
2023-01-25T13:02:00.554Z,2.11
2023-01-25T13:04:39.315Z,2.08
2023-01-25T13:07:28.308Z,2.06
2023-01-25T13:10:09.015Z,2.02
2023-01-25T13:12:57.317Z,2.02
2023-01-25T13:15:40.567Z,2.06
2023-01-25T13:18:33.480Z,1.99
2023-01-25T13:21:06.416Z,2.04
2023-01-25T13:23:40.482Z,2.05
2023-01-25T13:26:28.453Z,2.29
2023-01-25T13:29:02.175Z,2.06
2023-01-25T13:31:53.049Z,2.33
2023-01-25T13:34:18.325Z,2.23
2023-01-25T13:36:48.711Z,2.04
2023-01-25T13:39:32.998Z,2.00
2023-01-25T13:42:11.675Z,2.06
2023-01-25T13:44:50.177Z,2.12
2023-01-25T13:47:22.238Z,1.94
2023-01-25T13:50:04.143Z,2.27
2023-01-25T13:52:35.452Z,2.27
2023-01-25T13:55:06.356Z,2.04
2023-01-25T13:57:35.959Z,2.12
2023-01-25T14:00:11.668Z,1.98
2023-01-25T14:02:45.669Z,2.02
2023-01-25T14:05:24.021Z,2.04
2023-01-25T14:07:58.829Z,1.88
2023-01-25T14:10:30.137Z,1.78
2023-01-25T14:13:01.677Z,1.85
2023-01-25T14:15:33.594Z,1.77
2023-01-25T14:18:21.027Z,1.83
2023-01-25T14:20:53.483Z,1.90
2023-01-25T14:23:28.681Z,1.91
2023-01-25T14:26:01.246Z,1.79
2023-01-25T14:28:31.539Z,1.76
2023-01-25T14:31:06.016Z,1.99
2023-01-25T14:33:38.535Z,2.26
2023-01-25T14:36:24.341Z,2.52
2023-01-25T14:38:44.751Z,2.40
2023-01-25T14:41:38.791Z,2.36
2023-01-25T14:44:14.595Z,2.36
2023-01-25T14:46:44.340Z,2.25
2023-01-25T14:49:28.768Z,2.35
2023-01-25T14:52:07.781Z,2.10
2023-01-25T14:54:40.684Z,2.18
2023-01-25T14:57:30.044Z,1.97
2023-01-25T15:00:01.567Z,2.07
2023-01-25T15:02:43.143Z,2.04
2023-01-25T15:05:24.729Z,2.09
2023-01-25T15:08:00.678Z,1.93
2023-01-25T15:10:33.032Z,1.99
2023-01-25T15:13:15.452Z,2.20
2023-01-25T15:15:58.714Z,1.97
2023-01-25T15:18:48.615Z,2.35
2023-01-25T15:21:20.664Z,2.33
2023-01-25T15:23:52.124Z,2.05
2023-01-25T15:26:27.022Z,1.97
2023-01-25T15:28:59.046Z,1.99
2023-01-25T15:31:32.015Z,1.91
2023-01-25T15:34:02.918Z,1.96
2023-01-25T15:36:33.721Z,1.98
2023-01-25T15:39:03.478Z,2.02
2023-01-25T15:41:33.209Z,1.87
2023-01-25T15:44:03.101Z,1.96
2023-01-25T15:46:33.655Z,2.20
2023-01-25T15:49:06.718Z,2.20
2023-01-25T15:51:36.627Z,2.03
2023-01-25T15:54:07.377Z,2.06
2023-01-25T15:56:38.723Z,2.11
2023-01-25T15:59:11.106Z,2.01
2023-01-25T16:01:40.908Z,1.93
2023-01-25T16:04:13.747Z,1.73
2023-01-25T16:06:52.044Z,2.10
2023-01-25T16:09:31.022Z,2.14
2023-01-25T16:12:03.051Z,2.04
2023-01-25T16:14:32.821Z,2.02
2023-01-25T16:17:05.673Z,1.96
2023-01-25T16:19:35.863Z,1.87
2023-01-25T16:22:06.884Z,1.84
2023-01-25T16:24:39.464Z,1.91
2023-01-25T16:27:14.886Z,1.90
2023-01-25T16:29:44.662Z,1.81
2023-01-25T16:32:14.490Z,1.84
2023-01-25T16:34:44.350Z,2.01
2023-01-25T16:37:18.739Z,1.97
2023-01-25T16:39:49.548Z,1.96
2023-01-25T16:42:22.363Z,1.92
2023-01-25T16:44:51.107Z,1.96
2023-01-25T16:47:26.116Z,1.93
2023-01-25T16:49:56.396Z,1.57
2023-01-25T16:52:26.167Z,1.57
2023-01-25T16:54:56.018Z,1.69
2023-01-25T16:57:25.772Z,1.91
2023-01-25T16:59:55.917Z,1.91
2023-01-25T17:02:25.724Z,1.79
2023-01-25T17:04:55.619Z,1.83
2023-01-25T17:07:25.346Z,1.93
2023-01-25T17:09:55.219Z,1.57
2023-01-25T17:12:24.956Z,1.58
2023-01-25T17:14:54.891Z,1.63
2023-01-25T17:17:26.311Z,1.77
2023-01-25T17:19:55.119Z,1.66
2023-01-25T17:22:24.934Z,1.74
2023-01-25T17:24:55.848Z,1.85
2023-01-25T17:27:25.689Z,1.74
2023-01-25T17:29:55.516Z,1.62
2023-01-25T17:32:25.402Z,1.76
2023-01-25T17:34:57.106Z,1.87
2023-01-25T17:37:26.860Z,1.74
2023-01-25T17:39:56.644Z,1.61
2023-01-25T17:42:26.413Z,1.31
2023-01-25T17:44:56.174Z,1.51
2023-01-25T17:47:26.000Z,1.71
2023-01-25T17:49:55.789Z,1.78
2023-01-25T17:52:25.528Z,1.63
2023-01-25T17:54:55.323Z,1.65
2023-01-25T17:57:26.227Z,1.52
2023-01-25T17:59:56.079Z,1.54
2023-01-25T18:02:25.945Z,1.54
2023-01-25T18:04:57.331Z,1.63
2023-01-25T18:07:26.084Z,1.53
2023-01-25T18:09:55.889Z,1.51
2023-01-25T18:12:25.736Z,1.58
2023-01-25T18:14:55.779Z,1.43
2023-01-25T18:17:25.627Z,1.41
2023-01-25T18:19:55.680Z,1.62
2023-01-25T18:22:25.621Z,1.53
2023-01-25T18:24:55.655Z,1.55
2023-01-25T18:27:27.841Z,1.54
2023-01-25T18:30:09.248Z,1.68
2023-01-25T18:32:39.027Z,1.53
2023-01-25T18:35:10.291Z,1.63
2023-01-25T18:37:40.721Z,1.62
2023-01-25T18:40:13.911Z,1.55
2023-01-25T18:42:45.507Z,1.54
2023-01-25T18:45:16.032Z,1.36
2023-01-25T18:47:45.842Z,1.33
2023-01-25T18:50:16.393Z,1.23
2023-01-25T18:52:46.533Z,1.26
2023-01-25T18:55:16.313Z,1.36
2023-01-25T18:57:46.065Z,1.35
2023-01-25T19:00:17.048Z,1.53
2023-01-25T19:02:47.076Z,1.47
2023-01-25T19:05:18.622Z,1.38
2023-01-25T19:07:48.374Z,1.49
2023-01-25T19:10:18.886Z,1.50
2023-01-25T19:12:48.950Z,1.46
2023-01-25T19:15:18.683Z,1.19
2023-01-25T19:17:48.434Z,1.23
2023-01-25T19:20:18.231Z,1.42
2023-01-25T19:22:48.248Z,1.62
2023-01-25T19:25:18.117Z,1.53
2023-01-25T19:27:47.897Z,1.37
2023-01-25T19:30:17.477Z,1.24
2023-01-25T19:32:47.265Z,1.22
2023-01-25T19:35:16.784Z,1.15
2023-01-25T19:37:47.348Z,1.38
2023-01-25T19:40:18.528Z,1.38
2023-01-25T19:42:48.422Z,1.45
2023-01-25T19:45:18.205Z,1.38
2023-01-25T19:47:48.037Z,1.20
2023-01-25T19:50:17.995Z,1.12
2023-01-25T19:52:48.076Z,1.07
2023-01-25T19:55:17.765Z,1.09
2023-01-25T19:57:47.789Z,1.17
2023-01-25T20:00:17.738Z,1.23
2023-01-25T20:02:47.728Z,1.34
2023-01-25T20:05:17.802Z,1.14
2023-01-25T20:07:47.545Z,1.14
2023-01-25T20:10:17.528Z,1.37
2023-01-25T20:12:47.510Z,1.13
2023-01-25T20:15:17.712Z,1.41
2023-01-25T20:17:47.223Z,1.49
2023-01-25T20:20:17.039Z,1.52
2023-01-25T20:22:48.440Z,1.52
2023-01-25T20:25:18.971Z,1.38
2023-01-25T20:27:49.067Z,1.38
2023-01-25T20:30:19.022Z,1.46
2023-01-25T20:32:48.803Z,1.25
2023-01-25T20:35:18.292Z,1.33
2023-01-25T20:37:49.420Z,1.68
2023-01-25T20:40:19.010Z,1.51
2023-01-25T20:42:49.072Z,1.35
2023-01-25T20:45:18.921Z,1.46
2023-01-25T20:47:48.702Z,1.46
2023-01-25T20:50:18.652Z,1.18
2023-01-25T20:52:48.438Z,1.17
2023-01-25T20:55:18.279Z,1.21
2023-01-25T20:57:48.104Z,1.08
2023-01-25T21:00:18.362Z,1.22
2023-01-25T21:02:47.923Z,1.26
2023-01-25T21:05:17.680Z,1.26
2023-01-25T21:07:47.490Z,1.15
2023-01-25T21:10:17.899Z,1.26
2023-01-25T21:12:47.502Z,1.01
2023-01-25T21:15:17.858Z,1.05
2023-01-25T21:17:52.780Z,0.84
2023-01-25T21:20:22.494Z,0.84
2023-01-25T21:22:52.304Z,0.81
2023-01-25T21:25:21.850Z,0.87
2023-01-25T21:27:53.300Z,0.86
2023-01-25T21:30:23.332Z,0.93
2023-01-25T21:32:53.273Z,1.21
2023-01-25T21:35:23.109Z,1.20
2023-01-25T21:37:53.374Z,1.01
2023-01-25T21:40:23.130Z,1.02
2023-01-25T21:42:52.901Z,1.10
2023-01-25T21:45:40.268Z,1.10
2023-01-25T21:48:10.078Z,0.94
2023-01-25T21:50:57.511Z,0.86
2023-01-25T21:53:27.573Z,0.92
2023-01-25T21:56:00.115Z,0.90
2023-01-25T21:58:29.883Z,0.95
2023-01-25T22:01:04.732Z,1.21
2023-01-25T22:03:34.806Z,1.01
2023-01-25T22:06:04.809Z,0.86
2023-01-25T22:08:34.879Z,0.85
2023-01-25T22:11:10.800Z,0.67
2023-01-25T22:13:41.695Z,0.98
2023-01-25T22:16:12.544Z,0.92
2023-01-25T22:18:44.078Z,0.81
2023-01-25T22:21:16.966Z,0.86
2023-01-25T22:23:48.777Z,0.78
2023-01-25T22:26:21.019Z,0.77
2023-01-25T22:28:56.360Z,0.88
2023-01-25T22:31:28.628Z,0.62
2023-01-25T22:33:59.933Z,0.62
2023-01-25T22:36:31.154Z,0.75
2023-01-25T22:39:03.028Z,0.73
2023-01-25T22:41:34.173Z,0.81
2023-01-25T22:44:04.093Z,1.18
2023-01-25T22:46:33.774Z,0.86
2023-01-25T22:49:04.781Z,0.80
2023-01-25T22:51:34.753Z,0.88
2023-01-25T22:54:05.105Z,0.81
2023-01-25T22:56:35.382Z,0.89
2023-01-25T22:59:07.972Z,1.08
2023-01-25T23:01:37.753Z,1.08
2023-01-25T23:04:07.313Z,0.95
2023-01-25T23:06:37.854Z,0.69
2023-01-25T23:09:07.914Z,0.69
2023-01-25T23:11:39.104Z,0.87
2023-01-25T23:14:29.176Z,0.88
2023-01-25T23:17:16.754Z,0.92
2023-01-25T23:19:46.658Z,0.90
2023-01-25T23:22:16.487Z,0.86
2023-01-25T23:24:46.268Z,0.97
2023-01-25T23:27:16.128Z,0.75
2023-01-25T23:29:46.022Z,0.75
2023-01-25T23:32:15.749Z,0.94
2023-01-25T23:34:45.542Z,0.85
2023-01-25T23:37:16.922Z,0.88
2023-01-25T23:39:45.715Z,0.82
2023-01-25T23:42:15.443Z,0.86
2023-01-25T23:44:45.306Z,0.87
2023-01-25T23:47:14.974Z,0.93
2023-01-25T23:49:44.822Z,0.93
2023-01-25T23:52:14.432Z,0.88
2023-01-25T23:54:44.228Z,0.85
2023-01-25T23:57:13.784Z,0.93
2023-01-25T23:59:43.593Z,0.76
